sensor_id;sensor_type;location;lat;lon;timestamp;temperature;humidity
33988;DHT22;37428;53.580;-1.666;2024-01-27T00:00:03;5.00;95.20
33988;DHT22;37428;53.580;-1.666;2024-01-27T00:03:05;5.00;95.30
33988;DHT22;37428;53.580;-1.666;2024-01-27T00:06:07;4.90;95.40
33988;DHT22;37428;53.580;-1.666;2024-01-27T00:09:09;4.90;95.50
33988;DHT22;37428;53.580;-1.666;2024-01-27T00:12:11;4.90;95.70
33988;DHT22;37428;53.580;-1.666;2024-01-27T00:15:15;4.90;95.80
33988;DHT22;37428;53.580;-1.666;2024-01-27T00:18:17;4.90;95.90
33988;DHT22;37428;53.580;-1.666;2024-01-27T00:21:19;5.00;95.90
33988;DHT22;37428;53.580;-1.666;2024-01-27T00:24:21;5.00;96.20
33988;DHT22;37428;53.580;-1.666;2024-01-27T00:27:23;5.00;96.60
33988;DHT22;37428;53.580;-1.666;2024-01-27T00:30:27;5.00;97.10
33988;DHT22;37428;53.580;-1.666;2024-01-27T00:33:29;5.00;97.00
33988;DHT22;37428;53.580;-1.666;2024-01-27T00:36:31;5.10;97.20
33988;DHT22;37428;53.580;-1.666;2024-01-27T00:39:33;5.10;97.20
33988;DHT22;37428;53.580;-1.666;2024-01-27T00:42:35;5.10;97.50
33988;DHT22;37428;53.580;-1.666;2024-01-27T00:45:38;5.20;97.60
33988;DHT22;37428;53.580;-1.666;2024-01-27T00:48:40;5.20;97.50
33988;DHT22;37428;53.580;-1.666;2024-01-27T00:51:42;5.20;97.50
33988;DHT22;37428;53.580;-1.666;2024-01-27T00:54:45;5.20;97.40
33988;DHT22;37428;53.580;-1.666;2024-01-27T00:57:47;5.20;97.40
33988;DHT22;37428;53.580;-1.666;2024-01-27T01:00:50;5.20;97.40
33988;DHT22;37428;53.580;-1.666;2024-01-27T01:03:53;5.30;97.40
33988;DHT22;37428;53.580;-1.666;2024-01-27T01:06:55;5.30;97.40
33988;DHT22;37428;53.580;-1.666;2024-01-27T01:09:58;5.30;97.20
33988;DHT22;37428;53.580;-1.666;2024-01-27T01:13:00;5.30;97.20
33988;DHT22;37428;53.580;-1.666;2024-01-27T01:16:04;5.30;97.20
33988;DHT22;37428;53.580;-1.666;2024-01-27T01:19:08;5.30;97.30
33988;DHT22;37428;53.580;-1.666;2024-01-27T01:22:10;5.30;97.20
33988;DHT22;37428;53.580;-1.666;2024-01-27T01:25:13;5.30;97.20
33988;DHT22;37428;53.580;-1.666;2024-01-27T01:28:15;5.30;97.10
33988;DHT22;37428;53.580;-1.666;2024-01-27T01:31:18;5.20;97.30
33988;DHT22;37428;53.580;-1.666;2024-01-27T01:34:20;5.20;97.50
33988;DHT22;37428;53.580;-1.666;2024-01-27T01:37:22;5.20;97.60
33988;DHT22;37428;53.580;-1.666;2024-01-27T01:40:24;5.20;97.70
33988;DHT22;37428;53.580;-1.666;2024-01-27T01:43:26;5.20;97.70
33988;DHT22;37428;53.580;-1.666;2024-01-27T01:46:30;5.20;97.50
33988;DHT22;37428;53.580;-1.666;2024-01-27T01:49:33;5.20;97.60
33988;DHT22;37428;53.580;-1.666;2024-01-27T01:52:35;5.20;97.70
33988;DHT22;37428;53.580;-1.666;2024-01-27T01:55:37;5.20;97.50
33988;DHT22;37428;53.580;-1.666;2024-01-27T01:58:40;5.20;97.70
33988;DHT22;37428;53.580;-1.666;2024-01-27T02:01:43;5.10;97.80
33988;DHT22;37428;53.580;-1.666;2024-01-27T02:04:46;5.20;97.80
33988;DHT22;37428;53.580;-1.666;2024-01-27T02:07:48;5.20;98.10
33988;DHT22;37428;53.580;-1.666;2024-01-27T02:10:50;5.10;98.10
33988;DHT22;37428;53.580;-1.666;2024-01-27T02:13:53;5.10;98.20
33988;DHT22;37428;53.580;-1.666;2024-01-27T02:16:56;5.10;98.20
33988;DHT22;37428;53.580;-1.666;2024-01-27T02:19:58;5.10;98.30
33988;DHT22;37428;53.580;-1.666;2024-01-27T02:23:01;5.10;98.40
33988;DHT22;37428;53.580;-1.666;2024-01-27T02:26:06;5.20;98.60
33988;DHT22;37428;53.580;-1.666;2024-01-27T02:29:08;5.20;98.80
33988;DHT22;37428;53.580;-1.666;2024-01-27T02:32:10;5.10;98.70
33988;DHT22;37428;53.580;-1.666;2024-01-27T02:35:13;5.10;98.70
33988;DHT22;37428;53.580;-1.666;2024-01-27T02:38:15;5.10;98.60
33988;DHT22;37428;53.580;-1.666;2024-01-27T02:41:18;5.10;98.50
33988;DHT22;37428;53.580;-1.666;2024-01-27T02:44:20;5.10;98.50
33988;DHT22;37428;53.580;-1.666;2024-01-27T02:47:22;5.10;98.40
33988;DHT22;37428;53.580;-1.666;2024-01-27T02:50:24;5.10;98.10
33988;DHT22;37428;53.580;-1.666;2024-01-27T02:53:27;5.10;97.90
33988;DHT22;37428;53.580;-1.666;2024-01-27T02:56:30;5.20;97.90
33988;DHT22;37428;53.580;-1.666;2024-01-27T02:59:32;5.10;97.80
33988;DHT22;37428;53.580;-1.666;2024-01-27T03:02:34;5.20;97.70
33988;DHT22;37428;53.580;-1.666;2024-01-27T03:05:36;5.20;97.60
33988;DHT22;37428;53.580;-1.666;2024-01-27T03:08:38;5.20;97.50
33988;DHT22;37428;53.580;-1.666;2024-01-27T03:11:42;5.20;97.30
33988;DHT22;37428;53.580;-1.666;2024-01-27T03:14:44;5.20;97.10
33988;DHT22;37428;53.580;-1.666;2024-01-27T03:17:46;5.30;97.00
33988;DHT22;37428;53.580;-1.666;2024-01-27T03:20:48;5.30;97.00
33988;DHT22;37428;53.580;-1.666;2024-01-27T03:23:50;5.30;96.90
33988;DHT22;37428;53.580;-1.666;2024-01-27T03:26:54;5.20;96.90
33988;DHT22;37428;53.580;-1.666;2024-01-27T03:29:59;5.30;96.70
33988;DHT22;37428;53.580;-1.666;2024-01-27T03:33:02;5.30;96.50
33988;DHT22;37428;53.580;-1.666;2024-01-27T03:36:09;5.40;96.30
33988;DHT22;37428;53.580;-1.666;2024-01-27T03:39:12;5.40;96.30
33988;DHT22;37428;53.580;-1.666;2024-01-27T03:42:15;5.40;96.20
33988;DHT22;37428;53.580;-1.666;2024-01-27T03:45:17;5.40;96.10
33988;DHT22;37428;53.580;-1.666;2024-01-27T03:48:19;5.50;96.20
33988;DHT22;37428;53.580;-1.666;2024-01-27T03:51:21;5.50;95.60
33988;DHT22;37428;53.580;-1.666;2024-01-27T03:54:23;5.50;95.30
33988;DHT22;37428;53.580;-1.666;2024-01-27T03:57:27;5.60;95.30
33988;DHT22;37428;53.580;-1.666;2024-01-27T04:00:29;5.60;95.00
33988;DHT22;37428;53.580;-1.666;2024-01-27T04:03:33;5.60;94.80
33988;DHT22;37428;53.580;-1.666;2024-01-27T04:06:39;5.60;94.70
33988;DHT22;37428;53.580;-1.666;2024-01-27T04:09:41;5.70;94.60
33988;DHT22;37428;53.580;-1.666;2024-01-27T04:12:45;5.70;94.30
33988;DHT22;37428;53.580;-1.666;2024-01-27T04:15:47;5.60;94.00
33988;DHT22;37428;53.580;-1.666;2024-01-27T04:18:51;5.70;94.10
33988;DHT22;37428;53.580;-1.666;2024-01-27T04:21:53;5.70;93.70
33988;DHT22;37428;53.580;-1.666;2024-01-27T04:24:56;5.70;93.60
33988;DHT22;37428;53.580;-1.666;2024-01-27T04:27:59;5.70;93.40
33988;DHT22;37428;53.580;-1.666;2024-01-27T04:31:01;5.70;93.50
33988;DHT22;37428;53.580;-1.666;2024-01-27T04:34:03;5.70;93.40
33988;DHT22;37428;53.580;-1.666;2024-01-27T04:37:05;5.70;93.40
33988;DHT22;37428;53.580;-1.666;2024-01-27T04:40:08;5.70;93.50
33988;DHT22;37428;53.580;-1.666;2024-01-27T04:43:14;5.70;93.30
33988;DHT22;37428;53.580;-1.666;2024-01-27T04:46:17;5.70;93.30
33988;DHT22;37428;53.580;-1.666;2024-01-27T04:49:19;5.70;93.00
33988;DHT22;37428;53.580;-1.666;2024-01-27T04:52:21;5.70;92.80
33988;DHT22;37428;53.580;-1.666;2024-01-27T04:55:23;5.70;92.90
33988;DHT22;37428;53.580;-1.666;2024-01-27T04:58:26;5.70;92.30
33988;DHT22;37428;53.580;-1.666;2024-01-27T05:01:29;5.70;91.50
33988;DHT22;37428;53.580;-1.666;2024-01-27T05:04:31;5.70;91.10
33988;DHT22;37428;53.580;-1.666;2024-01-27T05:07:33;5.70;90.70
33988;DHT22;37428;53.580;-1.666;2024-01-27T05:10:35;5.70;90.70
33988;DHT22;37428;53.580;-1.666;2024-01-27T05:13:40;5.60;90.60
33988;DHT22;37428;53.580;-1.666;2024-01-27T05:16:42;5.60;90.20
33988;DHT22;37428;53.580;-1.666;2024-01-27T05:19:44;5.50;90.10
33988;DHT22;37428;53.580;-1.666;2024-01-27T05:22:46;5.50;90.20
33988;DHT22;37428;53.580;-1.666;2024-01-27T05:25:48;5.40;90.10
33988;DHT22;37428;53.580;-1.666;2024-01-27T05:28:52;5.40;89.90
33988;DHT22;37428;53.580;-1.666;2024-01-27T05:31:54;5.40;89.90
33988;DHT22;37428;53.580;-1.666;2024-01-27T05:34:56;5.40;89.90
33988;DHT22;37428;53.580;-1.666;2024-01-27T05:37:58;5.30;90.10
33988;DHT22;37428;53.580;-1.666;2024-01-27T05:41:01;5.30;89.90
33988;DHT22;37428;53.580;-1.666;2024-01-27T05:44:04;5.30;89.50
33988;DHT22;37428;53.580;-1.666;2024-01-27T05:47:06;5.30;89.30
33988;DHT22;37428;53.580;-1.666;2024-01-27T05:50:11;5.20;89.30
33988;DHT22;37428;53.580;-1.666;2024-01-27T05:53:13;5.30;89.70
33988;DHT22;37428;53.580;-1.666;2024-01-27T05:56:15;5.30;89.90
33988;DHT22;37428;53.580;-1.666;2024-01-27T05:59:19;5.30;89.80
33988;DHT22;37428;53.580;-1.666;2024-01-27T06:02:21;5.30;89.90
33988;DHT22;37428;53.580;-1.666;2024-01-27T06:05:23;5.30;89.90
33988;DHT22;37428;53.580;-1.666;2024-01-27T06:08:25;5.30;89.90
33988;DHT22;37428;53.580;-1.666;2024-01-27T06:11:27;5.40;90.10
33988;DHT22;37428;53.580;-1.666;2024-01-27T06:14:31;5.40;89.90
33988;DHT22;37428;53.580;-1.666;2024-01-27T06:17:33;5.40;89.80
33988;DHT22;37428;53.580;-1.666;2024-01-27T06:20:35;5.40;89.80
33988;DHT22;37428;53.580;-1.666;2024-01-27T06:23:37;5.50;89.50
33988;DHT22;37428;53.580;-1.666;2024-01-27T06:26:39;5.50;89.40
33988;DHT22;37428;53.580;-1.666;2024-01-27T06:29:43;5.50;89.60
33988;DHT22;37428;53.580;-1.666;2024-01-27T06:32:45;5.50;89.30
33988;DHT22;37428;53.580;-1.666;2024-01-27T06:35:47;5.50;89.10
33988;DHT22;37428;53.580;-1.666;2024-01-27T06:38:50;5.50;88.60
33988;DHT22;37428;53.580;-1.666;2024-01-27T06:41:52;5.50;88.30
33988;DHT22;37428;53.580;-1.666;2024-01-27T06:44:55;5.60;88.40
33988;DHT22;37428;53.580;-1.666;2024-01-27T06:47:57;5.60;88.50
33988;DHT22;37428;53.580;-1.666;2024-01-27T06:50:59;5.60;88.50
33988;DHT22;37428;53.580;-1.666;2024-01-27T06:54:01;5.60;88.30
33988;DHT22;37428;53.580;-1.666;2024-01-27T06:57:04;5.60;88.20
33988;DHT22;37428;53.580;-1.666;2024-01-27T07:00:08;5.70;88.40
33988;DHT22;37428;53.580;-1.666;2024-01-27T07:03:14;5.70;88.20
33988;DHT22;37428;53.580;-1.666;2024-01-27T07:06:16;5.70;88.20
33988;DHT22;37428;53.580;-1.666;2024-01-27T07:09:18;5.70;88.50
33988;DHT22;37428;53.580;-1.666;2024-01-27T07:12:21;5.70;88.60
33988;DHT22;37428;53.580;-1.666;2024-01-27T07:15:24;5.70;88.80
33988;DHT22;37428;53.580;-1.666;2024-01-27T07:18:27;5.70;88.80
33988;DHT22;37428;53.580;-1.666;2024-01-27T07:21:29;5.70;89.00
33988;DHT22;37428;53.580;-1.666;2024-01-27T07:24:32;5.70;89.20
33988;DHT22;37428;53.580;-1.666;2024-01-27T07:27:34;5.70;89.20
33988;DHT22;37428;53.580;-1.666;2024-01-27T07:30:37;5.70;89.30
33988;DHT22;37428;53.580;-1.666;2024-01-27T07:33:39;5.70;89.50
33988;DHT22;37428;53.580;-1.666;2024-01-27T07:36:41;5.70;89.80
33988;DHT22;37428;53.580;-1.666;2024-01-27T07:39:44;5.70;90.00
33988;DHT22;37428;53.580;-1.666;2024-01-27T07:42:46;5.70;89.80
33988;DHT22;37428;53.580;-1.666;2024-01-27T07:45:49;5.70;90.10
33988;DHT22;37428;53.580;-1.666;2024-01-27T07:48:53;5.70;90.10
33988;DHT22;37428;53.580;-1.666;2024-01-27T07:51:55;5.70;90.20
33988;DHT22;37428;53.580;-1.666;2024-01-27T07:54:57;5.70;89.70
33988;DHT22;37428;53.580;-1.666;2024-01-27T07:57:59;5.70;89.70
33988;DHT22;37428;53.580;-1.666;2024-01-27T08:01:03;5.80;89.60
33988;DHT22;37428;53.580;-1.666;2024-01-27T08:04:05;5.80;89.00
33988;DHT22;37428;53.580;-1.666;2024-01-27T08:07:07;5.80;88.70
33988;DHT22;37428;53.580;-1.666;2024-01-27T08:10:10;5.90;88.70
33988;DHT22;37428;53.580;-1.666;2024-01-27T08:13:12;5.90;88.30
33988;DHT22;37428;53.580;-1.666;2024-01-27T08:16:16;5.90;88.20
33988;DHT22;37428;53.580;-1.666;2024-01-27T08:19:18;6.00;87.80
33988;DHT22;37428;53.580;-1.666;2024-01-27T08:22:21;6.00;87.60
33988;DHT22;37428;53.580;-1.666;2024-01-27T08:25:23;6.00;86.80
33988;DHT22;37428;53.580;-1.666;2024-01-27T08:28:25;6.00;87.10
33988;DHT22;37428;53.580;-1.666;2024-01-27T08:31:28;6.10;87.20
33988;DHT22;37428;53.580;-1.666;2024-01-27T08:34:30;6.00;87.60
33988;DHT22;37428;53.580;-1.666;2024-01-27T08:37:32;6.00;88.40
33988;DHT22;37428;53.580;-1.666;2024-01-27T08:40:39;5.90;88.90
33988;DHT22;37428;53.580;-1.666;2024-01-27T08:43:41;5.90;89.40
33988;DHT22;37428;53.580;-1.666;2024-01-27T08:46:45;5.90;89.70
33988;DHT22;37428;53.580;-1.666;2024-01-27T08:49:47;5.90;90.40
33988;DHT22;37428;53.580;-1.666;2024-01-27T08:52:49;5.90;90.80
33988;DHT22;37428;53.580;-1.666;2024-01-27T08:55:51;5.90;90.90
33988;DHT22;37428;53.580;-1.666;2024-01-27T08:58:53;5.90;91.10
33988;DHT22;37428;53.580;-1.666;2024-01-27T09:01:56;5.90;91.40
33988;DHT22;37428;53.580;-1.666;2024-01-27T09:04:58;5.90;91.50
33988;DHT22;37428;53.580;-1.666;2024-01-27T09:08:01;5.90;92.00
33988;DHT22;37428;53.580;-1.666;2024-01-27T09:11:03;5.90;91.60
33988;DHT22;37428;53.580;-1.666;2024-01-27T09:14:05;5.90;91.70
33988;DHT22;37428;53.580;-1.666;2024-01-27T09:17:09;5.90;92.00
33988;DHT22;37428;53.580;-1.666;2024-01-27T09:20:13;6.00;91.80
33988;DHT22;37428;53.580;-1.666;2024-01-27T09:23:15;6.00;91.90
33988;DHT22;37428;53.580;-1.666;2024-01-27T09:26:17;6.00;92.00
33988;DHT22;37428;53.580;-1.666;2024-01-27T09:29:20;6.10;91.80
33988;DHT22;37428;53.580;-1.666;2024-01-27T09:32:23;6.10;91.90
33988;DHT22;37428;53.580;-1.666;2024-01-27T09:35:25;6.10;92.00
33988;DHT22;37428;53.580;-1.666;2024-01-27T09:38:27;6.10;92.00
33988;DHT22;37428;53.580;-1.666;2024-01-27T09:41:31;6.20;92.10
33988;DHT22;37428;53.580;-1.666;2024-01-27T09:44:35;6.20;92.20
33988;DHT22;37428;53.580;-1.666;2024-01-27T09:47:39;6.20;92.30
33988;DHT22;37428;53.580;-1.666;2024-01-27T09:50:42;6.20;92.30
33988;DHT22;37428;53.580;-1.666;2024-01-27T09:53:44;6.20;92.10
33988;DHT22;37428;53.580;-1.666;2024-01-27T09:56:46;6.20;92.00
33988;DHT22;37428;53.580;-1.666;2024-01-27T09:59:49;6.30;92.40
33988;DHT22;37428;53.580;-1.666;2024-01-27T10:02:54;6.30;92.20
33988;DHT22;37428;53.580;-1.666;2024-01-27T10:05:58;6.30;91.50
33988;DHT22;37428;53.580;-1.666;2024-01-27T10:09:06;6.30;91.80
33988;DHT22;37428;53.580;-1.666;2024-01-27T10:12:12;6.30;91.70
33988;DHT22;37428;53.580;-1.666;2024-01-27T10:15:19;6.30;91.70
33988;DHT22;37428;53.580;-1.666;2024-01-27T10:18:23;6.30;91.60
33988;DHT22;37428;53.580;-1.666;2024-01-27T10:21:25;6.20;91.70
33988;DHT22;37428;53.580;-1.666;2024-01-27T10:24:27;6.20;91.90
33988;DHT22;37428;53.580;-1.666;2024-01-27T10:27:29;6.20;91.60
33988;DHT22;37428;53.580;-1.666;2024-01-27T10:30:31;6.20;91.80
33988;DHT22;37428;53.580;-1.666;2024-01-27T10:33:35;6.20;92.10
33988;DHT22;37428;53.580;-1.666;2024-01-27T10:36:40;6.20;91.90
33988;DHT22;37428;53.580;-1.666;2024-01-27T10:39:42;6.30;91.90
33988;DHT22;37428;53.580;-1.666;2024-01-27T10:42:45;6.40;92.00
33988;DHT22;37428;53.580;-1.666;2024-01-27T10:45:48;6.40;92.30
33988;DHT22;37428;53.580;-1.666;2024-01-27T10:48:52;6.40;92.00
33988;DHT22;37428;53.580;-1.666;2024-01-27T10:51:55;6.50;92.20
33988;DHT22;37428;53.580;-1.666;2024-01-27T10:55:00;6.50;91.70
33988;DHT22;37428;53.580;-1.666;2024-01-27T10:58:04;6.60;91.10
33988;DHT22;37428;53.580;-1.666;2024-01-27T11:01:06;6.70;91.30
33988;DHT22;37428;53.580;-1.666;2024-01-27T11:04:12;6.70;90.70
33988;DHT22;37428;53.580;-1.666;2024-01-27T11:07:15;6.70;90.60
33988;DHT22;37428;53.580;-1.666;2024-01-27T11:10:18;6.70;90.40
33988;DHT22;37428;53.580;-1.666;2024-01-27T11:13:20;6.80;90.20
33988;DHT22;37428;53.580;-1.666;2024-01-27T11:16:23;6.80;90.20
33988;DHT22;37428;53.580;-1.666;2024-01-27T11:19:27;6.80;89.70
33988;DHT22;37428;53.580;-1.666;2024-01-27T11:22:29;6.90;89.30
33988;DHT22;37428;53.580;-1.666;2024-01-27T11:25:31;6.90;89.10
33988;DHT22;37428;53.580;-1.666;2024-01-27T11:28:34;7.00;89.40
33988;DHT22;37428;53.580;-1.666;2024-01-27T11:31:40;6.90;89.30
33988;DHT22;37428;53.580;-1.666;2024-01-27T11:34:44;7.00;89.30
33988;DHT22;37428;53.580;-1.666;2024-01-27T11:37:47;7.10;89.30
33988;DHT22;37428;53.580;-1.666;2024-01-27T11:40:49;7.10;89.00
33988;DHT22;37428;53.580;-1.666;2024-01-27T11:43:52;7.10;89.10
33988;DHT22;37428;53.580;-1.666;2024-01-27T11:46:54;7.20;88.80
33988;DHT22;37428;53.580;-1.666;2024-01-27T11:49:58;7.20;88.80
33988;DHT22;37428;53.580;-1.666;2024-01-27T11:53:00;7.20;88.60
33988;DHT22;37428;53.580;-1.666;2024-01-27T11:56:03;7.30;88.10
33988;DHT22;37428;53.580;-1.666;2024-01-27T11:59:05;7.40;88.30
33988;DHT22;37428;53.580;-1.666;2024-01-27T12:02:08;7.40;87.70
33988;DHT22;37428;53.580;-1.666;2024-01-27T12:05:11;7.50;87.80
33988;DHT22;37428;53.580;-1.666;2024-01-27T12:08:13;7.50;86.90
33988;DHT22;37428;53.580;-1.666;2024-01-27T12:11:16;7.50;87.00
33988;DHT22;37428;53.580;-1.666;2024-01-27T12:14:18;7.50;87.20
33988;DHT22;37428;53.580;-1.666;2024-01-27T12:17:21;7.50;87.60
33988;DHT22;37428;53.580;-1.666;2024-01-27T12:20:26;7.50;87.00
33988;DHT22;37428;53.580;-1.666;2024-01-27T12:23:28;7.50;86.70
33988;DHT22;37428;53.580;-1.666;2024-01-27T12:26:31;7.50;85.50
33988;DHT22;37428;53.580;-1.666;2024-01-27T12:29:33;7.40;85.70
33988;DHT22;37428;53.580;-1.666;2024-01-27T12:32:36;7.50;86.60
33988;DHT22;37428;53.580;-1.666;2024-01-27T12:35:39;7.60;86.70
33988;DHT22;37428;53.580;-1.666;2024-01-27T12:38:41;7.70;85.60
33988;DHT22;37428;53.580;-1.666;2024-01-27T12:41:43;7.80;84.90
33988;DHT22;37428;53.580;-1.666;2024-01-27T12:44:45;7.90;84.90
33988;DHT22;37428;53.580;-1.666;2024-01-27T12:47:48;8.10;83.30
33988;DHT22;37428;53.580;-1.666;2024-01-27T12:50:51;8.30;83.90
33988;DHT22;37428;53.580;-1.666;2024-01-27T12:53:54;8.40;82.70
33988;DHT22;37428;53.580;-1.666;2024-01-27T12:56:56;8.60;81.70
33988;DHT22;37428;53.580;-1.666;2024-01-27T12:59:58;8.70;80.90
33988;DHT22;37428;53.580;-1.666;2024-01-27T13:03:00;8.80;80.90
33988;DHT22;37428;53.580;-1.666;2024-01-27T13:06:04;9.00;81.10
33988;DHT22;37428;53.580;-1.666;2024-01-27T13:09:07;9.20;80.40
33988;DHT22;37428;53.580;-1.666;2024-01-27T13:12:11;9.30;78.90
33988;DHT22;37428;53.580;-1.666;2024-01-27T13:15:14;9.40;79.30
33988;DHT22;37428;53.580;-1.666;2024-01-27T13:18:16;9.50;78.50
33988;DHT22;37428;53.580;-1.666;2024-01-27T13:21:19;9.70;78.30
33988;DHT22;37428;53.580;-1.666;2024-01-27T13:24:21;9.80;77.70
33988;DHT22;37428;53.580;-1.666;2024-01-27T13:27:25;9.80;76.00
33988;DHT22;37428;53.580;-1.666;2024-01-27T13:30:27;9.80;76.20
33988;DHT22;37428;53.580;-1.666;2024-01-27T13:33:29;9.90;77.20
33988;DHT22;37428;53.580;-1.666;2024-01-27T13:36:33;9.90;76.10
33988;DHT22;37428;53.580;-1.666;2024-01-27T13:39:35;9.90;75.40
33988;DHT22;37428;53.580;-1.666;2024-01-27T13:42:38;9.90;76.60
33988;DHT22;37428;53.580;-1.666;2024-01-27T13:45:40;9.90;76.70
33988;DHT22;37428;53.580;-1.666;2024-01-27T13:48:42;9.80;76.70
33988;DHT22;37428;53.580;-1.666;2024-01-27T13:51:46;9.70;76.60
33988;DHT22;37428;53.580;-1.666;2024-01-27T13:54:48;9.60;78.00
33988;DHT22;37428;53.580;-1.666;2024-01-27T13:57:50;9.60;77.80
33988;DHT22;37428;53.580;-1.666;2024-01-27T14:00:52;9.50;78.10
33988;DHT22;37428;53.580;-1.666;2024-01-27T14:03:54;9.50;78.00
33988;DHT22;37428;53.580;-1.666;2024-01-27T14:06:58;9.40;78.10
33988;DHT22;37428;53.580;-1.666;2024-01-27T14:10:03;9.50;78.20
33988;DHT22;37428;53.580;-1.666;2024-01-27T14:13:05;9.50;78.00
33988;DHT22;37428;53.580;-1.666;2024-01-27T14:16:09;9.50;77.40
33988;DHT22;37428;53.580;-1.666;2024-01-27T14:19:12;9.40;76.40
33988;DHT22;37428;53.580;-1.666;2024-01-27T14:22:15;9.50;77.70
33988;DHT22;37428;53.580;-1.666;2024-01-27T14:25:17;9.50;76.30
33988;DHT22;37428;53.580;-1.666;2024-01-27T14:28:20;9.30;76.30
33988;DHT22;37428;53.580;-1.666;2024-01-27T14:31:23;9.10;76.40
33988;DHT22;37428;53.580;-1.666;2024-01-27T14:34:25;9.00;76.80
33988;DHT22;37428;53.580;-1.666;2024-01-27T14:37:28;8.90;77.50
33988;DHT22;37428;53.580;-1.666;2024-01-27T14:40:30;8.80;77.90
33988;DHT22;37428;53.580;-1.666;2024-01-27T14:43:33;8.60;78.40
33988;DHT22;37428;53.580;-1.666;2024-01-27T14:46:35;8.50;78.40
33988;DHT22;37428;53.580;-1.666;2024-01-27T14:49:40;8.30;79.00
33988;DHT22;37428;53.580;-1.666;2024-01-27T14:52:46;8.20;80.30
33988;DHT22;37428;53.580;-1.666;2024-01-27T14:55:48;8.20;80.70
33988;DHT22;37428;53.580;-1.666;2024-01-27T14:58:50;8.20;80.90
33988;DHT22;37428;53.580;-1.666;2024-01-27T15:01:52;8.10;80.60
33988;DHT22;37428;53.580;-1.666;2024-01-27T15:04:55;8.10;80.70
33988;DHT22;37428;53.580;-1.666;2024-01-27T15:07:59;8.00;80.50
33988;DHT22;37428;53.580;-1.666;2024-01-27T15:11:01;8.00;81.00
33988;DHT22;37428;53.580;-1.666;2024-01-27T15:14:04;8.00;81.10
33988;DHT22;37428;53.580;-1.666;2024-01-27T15:17:07;8.10;80.70
33988;DHT22;37428;53.580;-1.666;2024-01-27T15:20:10;8.20;80.90
33988;DHT22;37428;53.580;-1.666;2024-01-27T15:23:14;8.30;81.20
33988;DHT22;37428;53.580;-1.666;2024-01-27T15:26:16;8.30;80.80
33988;DHT22;37428;53.580;-1.666;2024-01-27T15:29:18;8.30;80.60
33988;DHT22;37428;53.580;-1.666;2024-01-27T15:32:20;8.30;81.00
33988;DHT22;37428;53.580;-1.666;2024-01-27T15:35:24;8.20;80.10
33988;DHT22;37428;53.580;-1.666;2024-01-27T15:38:32;8.10;80.20
33988;DHT22;37428;53.580;-1.666;2024-01-27T15:41:34;8.10;80.40
33988;DHT22;37428;53.580;-1.666;2024-01-27T15:44:36;8.10;80.40
33988;DHT22;37428;53.580;-1.666;2024-01-27T15:47:38;8.00;80.70
33988;DHT22;37428;53.580;-1.666;2024-01-27T15:50:42;8.00;81.40
33988;DHT22;37428;53.580;-1.666;2024-01-27T15:53:46;7.90;81.80
33988;DHT22;37428;53.580;-1.666;2024-01-27T15:56:48;7.80;80.90
33988;DHT22;37428;53.580;-1.666;2024-01-27T15:59:50;7.80;82.30
33988;DHT22;37428;53.580;-1.666;2024-01-27T16:02:52;7.80;81.50
33988;DHT22;37428;53.580;-1.666;2024-01-27T16:05:54;7.70;81.40
33988;DHT22;37428;53.580;-1.666;2024-01-27T16:08:58;7.70;81.80
33988;DHT22;37428;53.580;-1.666;2024-01-27T16:12:00;7.60;81.20
33988;DHT22;37428;53.580;-1.666;2024-01-27T16:15:02;7.60;82.20
33988;DHT22;37428;53.580;-1.666;2024-01-27T16:18:04;7.50;81.50
33988;DHT22;37428;53.580;-1.666;2024-01-27T16:21:07;7.40;81.90
33988;DHT22;37428;53.580;-1.666;2024-01-27T16:24:10;7.30;82.20
33988;DHT22;37428;53.580;-1.666;2024-01-27T16:27:12;7.20;82.10
33988;DHT22;37428;53.580;-1.666;2024-01-27T16:30:14;7.10;82.60
33988;DHT22;37428;53.580;-1.666;2024-01-27T16:33:17;7.00;82.90
33988;DHT22;37428;53.580;-1.666;2024-01-27T16:36:20;6.90;83.00
33988;DHT22;37428;53.580;-1.666;2024-01-27T16:39:24;6.80;83.40
33988;DHT22;37428;53.580;-1.666;2024-01-27T16:42:26;6.80;84.40
33988;DHT22;37428;53.580;-1.666;2024-01-27T16:45:28;6.80;84.30
33988;DHT22;37428;53.580;-1.666;2024-01-27T16:48:33;6.70;84.60
33988;DHT22;37428;53.580;-1.666;2024-01-27T16:51:35;6.60;84.90
33988;DHT22;37428;53.580;-1.666;2024-01-27T16:54:39;6.60;85.20
33988;DHT22;37428;53.580;-1.666;2024-01-27T16:57:42;6.60;84.80
33988;DHT22;37428;53.580;-1.666;2024-01-27T17:00:44;6.60;85.30
33988;DHT22;37428;53.580;-1.666;2024-01-27T17:03:46;6.60;85.00
33988;DHT22;37428;53.580;-1.666;2024-01-27T17:06:48;6.60;84.80
33988;DHT22;37428;53.580;-1.666;2024-01-27T17:09:51;6.50;85.20
33988;DHT22;37428;53.580;-1.666;2024-01-27T17:12:54;6.50;85.10
33988;DHT22;37428;53.580;-1.666;2024-01-27T17:15:57;6.50;85.10
33988;DHT22;37428;53.580;-1.666;2024-01-27T17:19:00;6.40;85.50
33988;DHT22;37428;53.580;-1.666;2024-01-27T17:22:03;6.30;85.70
33988;DHT22;37428;53.580;-1.666;2024-01-27T17:25:07;6.40;86.90
33988;DHT22;37428;53.580;-1.666;2024-01-27T17:28:09;6.30;86.90
33988;DHT22;37428;53.580;-1.666;2024-01-27T17:31:11;6.30;86.20
33988;DHT22;37428;53.580;-1.666;2024-01-27T17:34:14;6.30;86.60
33988;DHT22;37428;53.580;-1.666;2024-01-27T17:37:18;6.20;87.20
33988;DHT22;37428;53.580;-1.666;2024-01-27T17:40:21;6.20;87.50
33988;DHT22;37428;53.580;-1.666;2024-01-27T17:43:23;6.20;88.00
33988;DHT22;37428;53.580;-1.666;2024-01-27T17:46:25;6.20;88.40
33988;DHT22;37428;53.580;-1.666;2024-01-27T17:49:27;6.20;88.00
33988;DHT22;37428;53.580;-1.666;2024-01-27T17:52:29;6.20;87.80
33988;DHT22;37428;53.580;-1.666;2024-01-27T17:55:33;6.20;88.30
33988;DHT22;37428;53.580;-1.666;2024-01-27T17:58:35;6.20;88.10
33988;DHT22;37428;53.580;-1.666;2024-01-27T18:01:37;6.30;88.10
33988;DHT22;37428;53.580;-1.666;2024-01-27T18:04:39;6.30;88.20
33988;DHT22;37428;53.580;-1.666;2024-01-27T18:07:41;6.30;88.00
33988;DHT22;37428;53.580;-1.666;2024-01-27T18:10:45;6.30;88.30
33988;DHT22;37428;53.580;-1.666;2024-01-27T18:13:47;6.30;88.00
33988;DHT22;37428;53.580;-1.666;2024-01-27T18:16:50;6.40;87.20
33988;DHT22;37428;53.580;-1.666;2024-01-27T18:19:52;6.40;87.30
33988;DHT22;37428;53.580;-1.666;2024-01-27T18:22:54;6.40;86.90
33988;DHT22;37428;53.580;-1.666;2024-01-27T18:25:58;6.40;86.90
33988;DHT22;37428;53.580;-1.666;2024-01-27T18:29:00;6.40;87.20
33988;DHT22;37428;53.580;-1.666;2024-01-27T18:32:02;6.40;86.80
33988;DHT22;37428;53.580;-1.666;2024-01-27T18:35:05;6.30;87.20
33988;DHT22;37428;53.580;-1.666;2024-01-27T18:38:07;6.30;87.60
33988;DHT22;37428;53.580;-1.666;2024-01-27T18:41:11;6.30;87.70
33988;DHT22;37428;53.580;-1.666;2024-01-27T18:44:13;6.40;88.00
33988;DHT22;37428;53.580;-1.666;2024-01-27T18:47:17;6.40;87.80
33988;DHT22;37428;53.580;-1.666;2024-01-27T18:50:19;6.40;88.10
33988;DHT22;37428;53.580;-1.666;2024-01-27T18:53:21;6.30;87.30
33988;DHT22;37428;53.580;-1.666;2024-01-27T18:56:25;6.30;86.80
33988;DHT22;37428;53.580;-1.666;2024-01-27T18:59:27;6.30;86.60
33988;DHT22;37428;53.580;-1.666;2024-01-27T19:02:30;6.30;85.30
33988;DHT22;37428;53.580;-1.666;2024-01-27T19:05:33;6.30;85.20
33988;DHT22;37428;53.580;-1.666;2024-01-27T19:08:35;6.30;85.60
33988;DHT22;37428;53.580;-1.666;2024-01-27T19:11:40;6.30;85.60